createdAt,value
2019-02-16T00:00:33.714Z,0.00
2019-02-16T00:01:33.704Z,0.00
2019-02-16T00:02:33.716Z,0.00
2019-02-16T00:03:33.684Z,0.00
2019-02-16T00:04:33.697Z,0.00
2019-02-16T00:05:33.662Z,0.00
2019-02-16T00:06:33.649Z,0.00
2019-02-16T00:07:33.669Z,0.00
2019-02-16T00:08:33.628Z,0.00
2019-02-16T00:09:33.618Z,0.00
2019-02-16T00:10:33.604Z,0.00
2019-02-16T00:11:33.593Z,0.00
2019-02-16T00:12:33.598Z,0.00
2019-02-16T00:13:33.571Z,0.00
2019-02-16T00:14:33.563Z,0.00
2019-02-16T00:15:33.551Z,0.00
2019-02-16T00:16:33.538Z,0.00
2019-02-16T00:17:33.577Z,0.00
2019-02-16T00:18:33.520Z,0.00
2019-02-16T00:19:33.509Z,0.00
2019-02-16T00:20:33.506Z,0.00
2019-02-16T00:21:33.487Z,0.00
2019-02-16T00:22:33.475Z,0.00
2019-02-16T00:23:33.475Z,0.00
2019-02-16T00:24:33.451Z,0.00
2019-02-16T00:25:33.443Z,0.00
2019-02-16T00:26:33.432Z,0.00
2019-02-16T00:27:33.421Z,0.00
2019-02-16T00:28:33.422Z,0.00
2019-02-16T00:29:33.397Z,0.00
2019-02-16T00:30:33.403Z,0.00
2019-02-16T00:31:33.374Z,0.00
2019-02-16T00:32:33.365Z,0.00
2019-02-16T00:33:33.368Z,0.00
2019-02-16T00:34:33.343Z,0.00
2019-02-16T00:35:33.329Z,0.00
2019-02-16T00:36:33.321Z,0.00
2019-02-16T00:37:33.314Z,0.00
2019-02-16T00:38:33.310Z,0.00
2019-02-16T00:39:33.292Z,0.00
2019-02-16T00:40:33.276Z,0.00
2019-02-16T00:41:33.265Z,0.00
2019-02-16T00:42:33.254Z,0.00
2019-02-16T00:43:33.281Z,0.00
2019-02-16T00:44:33.236Z,0.00
2019-02-16T00:45:33.223Z,0.00
2019-02-16T00:46:33.210Z,0.00
2019-02-16T00:47:33.201Z,0.00
2019-02-16T00:48:33.199Z,0.00
2019-02-16T00:49:33.176Z,0.00
2019-02-16T00:50:33.165Z,0.00
2019-02-16T00:51:33.158Z,0.00
2019-02-16T00:52:33.142Z,0.00
2019-02-16T00:53:33.164Z,0.00
2019-02-16T00:54:33.122Z,0.00
2019-02-16T00:55:33.110Z,0.00
2019-02-16T00:56:33.102Z,0.00
2019-02-16T00:57:33.088Z,0.00
2019-02-16T00:58:33.091Z,0.00
2019-02-16T00:59:33.067Z,0.00
2019-02-16T01:00:33.056Z,0.00
2019-02-16T01:01:33.050Z,0.00
2019-02-16T01:02:33.036Z,0.00
2019-02-16T01:03:33.066Z,0.00
2019-02-16T01:04:33.011Z,0.00
2019-02-16T01:05:33.001Z,0.00
2019-02-16T01:06:32.989Z,0.00
2019-02-16T01:07:32.991Z,0.00
2019-02-16T01:08:32.978Z,0.00
2019-02-16T01:09:32.959Z,0.00
2019-02-16T01:10:32.946Z,0.00
2019-02-16T01:11:32.934Z,0.00
2019-02-16T01:12:32.928Z,0.00
2019-02-16T01:13:32.972Z,0.00
2019-02-16T01:14:32.900Z,0.00
2019-02-16T01:15:32.891Z,0.00
2019-02-16T01:16:32.891Z,0.00
2019-02-16T01:17:32.871Z,0.00
2019-02-16T01:18:32.858Z,0.00
2019-02-16T01:19:32.867Z,0.00
2019-02-16T01:20:32.835Z,0.00
2019-02-16T01:21:32.825Z,0.00
2019-02-16T01:22:32.815Z,0.00
2019-02-16T01:23:32.801Z,0.00
2019-02-16T01:24:32.804Z,0.00
2019-02-16T01:25:32.783Z,0.00
2019-02-16T01:26:32.774Z,0.00
2019-02-16T01:27:32.758Z,0.00
2019-02-16T01:28:32.746Z,0.00
2019-02-16T01:29:32.748Z,0.00
2019-02-16T01:30:32.728Z,0.00
2019-02-16T01:31:32.725Z,0.00
2019-02-16T01:32:32.703Z,0.00
2019-02-16T01:33:32.691Z,0.00
2019-02-16T01:34:32.706Z,0.00
2019-02-16T01:35:32.690Z,0.00
2019-02-16T01:36:32.661Z,0.00
2019-02-16T01:37:32.681Z,0.00
2019-02-16T01:38:32.638Z,0.00
2019-02-16T01:39:32.637Z,0.00
2019-02-16T01:40:32.625Z,0.00
2019-02-16T01:41:32.608Z,0.00
2019-02-16T01:42:32.597Z,0.00
2019-02-16T01:43:32.582Z,0.00
2019-02-16T01:44:32.583Z,0.00
2019-02-16T01:45:32.563Z,0.00
2019-02-16T01:46:32.549Z,0.00
2019-02-16T01:47:32.542Z,0.00
2019-02-16T01:48:32.548Z,0.00
2019-02-16T01:49:32.527Z,0.00
2019-02-16T01:50:32.505Z,0.00
2019-02-16T01:51:32.500Z,0.00
2019-02-16T01:52:32.491Z,0.00
2019-02-16T01:53:32.476Z,0.00
2019-02-16T01:54:32.477Z,0.00
2019-02-16T01:55:32.451Z,0.00
2019-02-16T01:56:32.439Z,0.00
2019-02-16T01:57:32.431Z,0.00
2019-02-16T01:58:32.440Z,0.00
2019-02-16T01:59:32.421Z,0.00
2019-02-16T02:00:32.396Z,0.00
2019-02-16T02:01:32.386Z,0.00
2019-02-16T02:02:32.375Z,0.00
2019-02-16T02:03:32.369Z,0.00
2019-02-16T02:04:32.372Z,0.00
2019-02-16T02:05:32.340Z,0.00
2019-02-16T02:06:32.329Z,0.00
2019-02-16T02:07:32.318Z,0.00
2019-02-16T02:08:32.306Z,0.00
2019-02-16T02:09:32.313Z,0.00
2019-02-16T02:10:32.288Z,0.00
2019-02-16T02:11:32.293Z,0.00
2019-02-16T02:12:32.264Z,0.00
2019-02-16T02:13:32.254Z,0.00
2019-02-16T02:14:32.257Z,0.00
2019-02-16T02:15:32.232Z,0.00
2019-02-16T02:16:32.223Z,0.00
2019-02-16T02:17:32.210Z,0.00
2019-02-16T02:18:32.199Z,0.00
2019-02-16T02:19:32.200Z,0.00
2019-02-16T02:20:32.178Z,0.00
2019-02-16T02:21:40.651Z,0.00
2019-02-16T02:22:33.156Z,0.00
2019-02-16T02:23:32.146Z,0.00
2019-02-16T02:24:32.144Z,0.00
2019-02-16T02:25:32.121Z,0.00
2019-02-16T02:26:32.116Z,0.00
2019-02-16T02:27:32.129Z,0.00
2019-02-16T02:28:32.088Z,0.00
2019-02-16T02:29:32.090Z,0.00
2019-02-16T02:30:32.067Z,0.00
2019-02-16T02:31:32.056Z,0.00
2019-02-16T02:32:32.048Z,0.00
2019-02-16T02:33:32.055Z,0.00
2019-02-16T02:34:32.073Z,0.00
2019-02-16T02:35:32.013Z,0.00
2019-02-16T02:36:32.002Z,0.00
2019-02-16T02:37:31.993Z,0.00
2019-02-16T02:38:31.987Z,0.00
2019-02-16T02:39:31.980Z,0.00
2019-02-16T02:40:31.972Z,0.00
2019-02-16T02:41:31.946Z,0.00
2019-02-16T02:42:31.937Z,0.00
2019-02-16T02:43:31.928Z,0.00
2019-02-16T02:44:31.930Z,0.00
2019-02-16T02:45:31.915Z,0.00
2019-02-16T02:46:31.894Z,0.00
2019-02-16T02:47:31.885Z,0.00
2019-02-16T02:48:31.870Z,0.00
2019-02-16T02:49:31.872Z,0.00
2019-02-16T02:50:31.868Z,0.00
2019-02-16T02:51:31.844Z,0.00
2019-02-16T02:52:31.831Z,0.00
2019-02-16T02:53:31.955Z,0.00
2019-02-16T02:54:31.804Z,0.00
2019-02-16T02:55:31.807Z,0.00
2019-02-16T02:56:31.788Z,0.00
2019-02-16T02:57:31.776Z,0.00
2019-02-16T02:58:31.773Z,0.00
2019-02-16T02:59:31.750Z,0.00
2019-02-16T03:00:31.749Z,0.00
2019-02-16T03:01:31.728Z,0.00
2019-02-16T03:02:31.719Z,0.00
2019-02-16T03:03:31.721Z,0.00
2019-02-16T03:04:31.699Z,0.00
2019-02-16T03:05:31.694Z,0.00
2019-02-16T03:06:31.674Z,0.00
2019-02-16T03:07:31.680Z,0.00
2019-02-16T03:08:31.650Z,0.00
2019-02-16T03:09:31.640Z,0.00
2019-02-16T03:10:31.644Z,0.00
2019-02-16T03:11:31.618Z,0.00
2019-02-16T03:12:31.607Z,0.00
2019-02-16T03:13:31.604Z,0.00
2019-02-16T03:14:31.597Z,0.00
2019-02-16T03:15:31.585Z,0.00
2019-02-16T03:16:31.563Z,0.00
2019-02-16T03:17:31.551Z,0.00
2019-02-16T03:18:31.624Z,0.00
2019-02-16T03:19:31.535Z,0.00
2019-02-16T03:20:31.547Z,0.00
2019-02-16T03:21:31.510Z,0.00
2019-02-16T03:22:31.496Z,0.00
2019-02-16T03:23:31.486Z,0.00
2019-02-16T03:24:31.507Z,0.00
2019-02-16T03:25:31.481Z,0.00
2019-02-16T03:26:31.461Z,0.00
2019-02-16T03:27:31.447Z,0.00
2019-02-16T03:28:38.449Z,0.00
2019-02-16T03:29:31.429Z,0.00
2019-02-16T03:30:38.448Z,0.00
2019-02-16T03:31:31.402Z,0.00
2019-02-16T03:32:31.390Z,0.00
2019-02-16T03:33:31.381Z,0.00
2019-02-16T03:34:31.365Z,0.00
2019-02-16T03:35:31.357Z,0.00
2019-02-16T03:36:31.357Z,0.00
2019-02-16T03:37:31.332Z,0.00
2019-02-16T03:38:31.322Z,0.00
2019-02-16T03:39:31.311Z,0.00
2019-02-16T03:40:31.299Z,0.00
2019-02-16T03:41:31.319Z,0.00
2019-02-16T03:42:31.286Z,0.00
2019-02-16T03:43:31.272Z,0.00
2019-02-16T03:44:31.255Z,0.00
2019-02-16T03:45:31.245Z,0.00
2019-02-16T03:46:31.249Z,0.00
2019-02-16T03:47:31.227Z,0.00
2019-02-16T03:48:31.213Z,0.00
2019-02-16T03:49:31.201Z,0.00
2019-02-16T03:50:31.190Z,0.00
2019-02-16T03:51:31.189Z,0.00
2019-02-16T03:52:31.175Z,0.00
2019-02-16T03:53:31.179Z,0.00
2019-02-16T03:54:31.147Z,0.00
2019-02-16T03:55:31.139Z,0.00
2019-02-16T03:56:31.137Z,0.00
2019-02-16T03:57:31.118Z,0.00
2019-02-16T03:58:31.104Z,0.00
2019-02-16T03:59:31.091Z,0.00
2019-02-16T04:00:31.079Z,0.00
2019-02-16T04:01:31.081Z,0.00
2019-02-16T04:02:31.058Z,0.00
2019-02-16T04:03:31.054Z,0.00
2019-02-16T04:04:31.039Z,0.00
2019-02-16T04:05:31.036Z,0.00
2019-02-16T04:06:31.029Z,0.00
2019-02-16T04:07:31.003Z,0.00
2019-02-16T04:08:30.992Z,0.00
2019-02-16T04:09:31.009Z,0.00
2019-02-16T04:10:30.974Z,0.00
2019-02-16T04:11:31.002Z,0.00
2019-02-16T04:12:30.959Z,0.00
2019-02-16T04:13:30.938Z,0.00
2019-02-16T04:14:30.929Z,0.00
2019-02-16T04:15:30.917Z,0.00
2019-02-16T04:16:30.920Z,0.00
2019-02-16T04:17:30.908Z,0.00
2019-02-16T04:18:30.882Z,0.00
2019-02-16T04:19:30.871Z,0.00
2019-02-16T04:20:30.860Z,0.00
2019-02-16T04:21:30.868Z,0.00
2019-02-16T04:22:30.852Z,0.00
2019-02-16T04:23:30.829Z,0.00
2019-02-16T04:24:30.831Z,0.00
2019-02-16T04:25:30.814Z,0.00
2019-02-16T04:26:30.827Z,0.00
2019-02-16T04:27:30.798Z,0.00
2019-02-16T04:28:30.786Z,0.00
2019-02-16T04:29:30.764Z,0.00
2019-02-16T04:30:30.751Z,0.00
2019-02-16T04:31:30.743Z,0.00
2019-02-16T04:32:30.745Z,0.00
2019-02-16T04:33:30.719Z,0.00
2019-02-16T04:34:30.715Z,0.00
2019-02-16T04:35:30.697Z,0.00
2019-02-16T04:36:30.686Z,0.00
2019-02-16T04:37:30.686Z,0.00
2019-02-16T04:38:30.669Z,0.00
2019-02-16T04:39:30.681Z,0.00
2019-02-16T04:40:30.642Z,0.00
2019-02-16T04:41:30.633Z,0.00
2019-02-16T04:42:30.633Z,0.00
2019-02-16T04:43:30.611Z,0.00
2019-02-16T04:44:30.605Z,0.00
2019-02-16T04:45:30.591Z,0.00
2019-02-16T04:46:30.579Z,0.00
2019-02-16T04:47:30.578Z,0.00
2019-02-16T04:48:30.559Z,0.00
2019-02-16T04:49:30.563Z,0.00
2019-02-16T04:50:30.565Z,0.00
2019-02-16T04:51:30.525Z,0.00
2019-02-16T04:52:34.941Z,0.00
2019-02-16T04:53:30.498Z,0.00
2019-02-16T04:54:30.497Z,0.00
2019-02-16T04:55:30.480Z,0.00
2019-02-16T04:56:30.471Z,0.00
2019-02-16T04:57:30.473Z,0.00
2019-02-16T04:58:30.471Z,0.00
2019-02-16T04:59:30.434Z,0.00
2019-02-16T05:00:30.423Z,0.00
2019-02-16T05:01:30.417Z,0.00
2019-02-16T05:02:30.457Z,0.00
2019-02-16T05:03:30.393Z,0.00
2019-02-16T05:04:30.379Z,0.00
2019-02-16T05:05:30.370Z,0.00
2019-02-16T05:06:30.357Z,0.00
2019-02-16T05:07:30.362Z,0.00
2019-02-16T05:08:30.338Z,0.00
2019-02-16T05:09:30.324Z,0.00
2019-02-16T05:10:30.312Z,0.00
2019-02-16T05:11:30.304Z,0.00
2019-02-16T05:12:30.320Z,0.00
2019-02-16T05:13:30.279Z,0.00
2019-02-16T05:14:30.280Z,0.00
2019-02-16T05:15:30.257Z,0.00
2019-02-16T05:16:30.249Z,0.00
2019-02-16T05:17:30.248Z,0.00
2019-02-16T05:18:30.231Z,0.00
2019-02-16T05:19:30.213Z,0.00
2019-02-16T05:20:30.204Z,0.00
2019-02-16T05:21:30.192Z,0.00
2019-02-16T05:22:30.205Z,0.00
2019-02-16T05:23:30.176Z,0.00
2019-02-16T05:24:30.159Z,0.00
2019-02-16T05:25:30.159Z,0.00
2019-02-16T05:26:30.138Z,0.00
2019-02-16T05:27:30.392Z,0.00
2019-02-16T05:28:30.122Z,0.00
2019-02-16T05:29:30.108Z,0.00
2019-02-16T05:30:30.094Z,0.00
2019-02-16T05:31:30.145Z,0.00
2019-02-16T05:32:30.084Z,0.00
2019-02-16T05:33:30.062Z,0.00
2019-02-16T05:34:30.065Z,0.00
2019-02-16T05:35:30.061Z,0.00
2019-02-16T05:36:30.029Z,0.00
2019-02-16T05:37:30.611Z,0.00
2019-02-16T05:38:30.026Z,0.00
2019-02-16T05:39:29.995Z,0.00
2019-02-16T05:40:29.986Z,0.00
2019-02-16T05:41:29.972Z,0.00
2019-02-16T05:42:29.976Z,0.00
2019-02-16T05:43:29.963Z,0.00
2019-02-16T05:44:29.940Z,0.00
2019-02-16T05:45:29.931Z,0.00
2019-02-16T05:46:29.918Z,0.00
2019-02-16T05:47:29.907Z,0.00
2019-02-16T05:48:29.921Z,0.00
2019-02-16T05:49:29.902Z,0.00
2019-02-16T05:50:29.875Z,0.00
2019-02-16T05:51:29.863Z,0.00
2019-02-16T05:52:29.853Z,0.00
2019-02-16T05:53:29.857Z,0.00
2019-02-16T05:54:29.830Z,0.00
2019-02-16T05:55:29.819Z,0.00
2019-02-16T05:56:29.807Z,0.00
2019-02-16T05:57:29.798Z,0.00
2019-02-16T05:58:29.821Z,0.00
2019-02-16T05:59:29.788Z,0.00
2019-02-16T06:00:29.782Z,0.00
2019-02-16T06:01:29.754Z,0.00
2019-02-16T06:02:29.742Z,0.00
2019-02-16T06:03:29.745Z,0.00
2019-02-16T06:04:29.738Z,0.00
2019-02-16T06:05:29.710Z,0.00
2019-02-16T06:06:29.698Z,0.00
2019-02-16T06:07:29.692Z,0.00
2019-02-16T06:08:29.688Z,0.00
2019-02-16T06:09:29.671Z,0.00
2019-02-16T06:10:29.655Z,0.00
2019-02-16T06:11:29.656Z,0.00
2019-02-16T06:12:29.635Z,0.00
2019-02-16T06:13:29.637Z,0.00
2019-02-16T06:14:29.610Z,0.00
2019-02-16T06:15:29.599Z,0.00
2019-02-16T06:16:29.589Z,0.00
2019-02-16T06:17:29.582Z,0.00
2019-02-16T06:18:29.583Z,0.00
2019-02-16T06:19:29.555Z,0.00
2019-02-16T06:20:29.546Z,0.00
2019-02-16T06:21:29.552Z,0.00
2019-02-16T06:22:29.523Z,0.00
2019-02-16T06:23:29.526Z,0.00
2019-02-16T06:24:29.504Z,0.00
2019-02-16T06:25:29.492Z,0.00
2019-02-16T06:26:29.480Z,0.00
2019-02-16T06:27:29.468Z,0.00
2019-02-16T06:28:29.478Z,0.00
2019-02-16T06:29:29.448Z,0.00
2019-02-16T06:30:29.435Z,0.00
2019-02-16T06:31:29.425Z,4.00
2019-02-16T06:32:29.416Z,4.00
2019-02-16T06:33:29.416Z,4.00
2019-02-16T06:34:29.396Z,0.00
2019-02-16T06:35:29.386Z,0.00
2019-02-16T06:36:29.371Z,4.00
2019-02-16T06:37:29.361Z,4.00
2019-02-16T06:38:29.421Z,4.00
2019-02-16T06:39:29.336Z,4.00
2019-02-16T06:40:29.326Z,0.00
2019-02-16T06:41:29.317Z,4.00
2019-02-16T06:42:29.306Z,4.00
2019-02-16T06:43:29.364Z,4.00
2019-02-16T06:44:29.308Z,8.00
2019-02-16T06:45:29.271Z,4.00
2019-02-16T06:46:29.263Z,4.00
2019-02-16T06:47:29.264Z,4.00
2019-02-16T06:48:29.255Z,8.00
2019-02-16T06:49:29.228Z,8.00
2019-02-16T06:50:36.768Z,4.00
2019-02-16T06:51:30.205Z,8.00
2019-02-16T06:52:29.210Z,8.00
2019-02-16T06:53:29.212Z,8.00
2019-02-16T06:54:29.173Z,12.00
2019-02-16T06:55:29.162Z,8.00
2019-02-16T06:56:29.192Z,8.00
2019-02-16T06:57:29.150Z,12.00
2019-02-16T06:58:29.286Z,12.00
2019-02-16T06:59:29.119Z,12.00
2019-02-16T07:00:29.110Z,12.00
2019-02-16T07:01:29.096Z,12.00
2019-02-16T07:02:29.086Z,12.00
2019-02-16T07:03:29.110Z,12.00
2019-02-16T07:04:29.063Z,16.00
2019-02-16T07:05:29.052Z,12.00
2019-02-16T07:06:29.040Z,16.00
2019-02-16T07:07:29.047Z,16.00
2019-02-16T07:08:29.025Z,16.00
2019-02-16T07:09:29.026Z,16.00
2019-02-16T07:10:28.999Z,16.00
2019-02-16T07:11:28.989Z,16.00
2019-02-16T07:12:28.977Z,16.00
2019-02-16T07:13:28.965Z,20.00
2019-02-16T07:14:28.990Z,16.00
2019-02-16T07:15:28.945Z,16.00
2019-02-16T07:16:28.968Z,20.00
2019-02-16T07:17:28.981Z,20.00
2019-02-16T07:18:28.927Z,20.00
2019-02-16T07:19:28.914Z,20.00
2019-02-16T07:20:29.004Z,20.00
2019-02-16T07:21:28.877Z,20.00
2019-02-16T07:22:28.867Z,20.00
2019-02-16T07:23:28.856Z,24.00
2019-02-16T07:24:28.857Z,24.00
2019-02-16T07:25:28.832Z,20.00
2019-02-16T07:26:28.825Z,24.00
2019-02-16T07:27:28.815Z,24.00
2019-02-16T07:28:28.799Z,24.00
2019-02-16T07:29:28.808Z,28.00
2019-02-16T07:30:28.795Z,24.00
2019-02-16T07:31:28.772Z,24.00
2019-02-16T07:32:28.776Z,28.00
2019-02-16T07:33:28.747Z,28.00
2019-02-16T07:34:28.747Z,24.00
2019-02-16T07:35:28.724Z,24.00
2019-02-16T07:36:28.711Z,28.00
2019-02-16T07:37:28.708Z,28.00
2019-02-16T07:38:28.697Z,28.00
2019-02-16T07:39:28.693Z,32.00
2019-02-16T07:40:28.690Z,28.00
2019-02-16T07:41:28.663Z,32.00
2019-02-16T07:42:28.645Z,28.00
2019-02-16T07:43:35.649Z,28.00
2019-02-16T07:44:28.636Z,32.00
2019-02-16T07:45:28.614Z,32.00
2019-02-16T07:46:28.602Z,36.00
2019-02-16T07:47:28.590Z,32.00
2019-02-16T07:48:28.580Z,32.00
2019-02-16T07:49:28.580Z,32.00
2019-02-16T07:50:28.569Z,36.00
2019-02-16T07:51:28.551Z,32.00
2019-02-16T07:52:28.541Z,36.00
2019-02-16T07:53:31.274Z,36.00
2019-02-16T07:54:28.544Z,40.00
2019-02-16T07:55:28.514Z,40.00
2019-02-16T07:56:28.493Z,44.00
2019-02-16T07:57:28.490Z,48.00
2019-02-16T07:58:28.473Z,52.00
2019-02-16T07:59:28.459Z,56.00
2019-02-16T08:00:28.464Z,64.00
2019-02-16T08:01:28.439Z,68.00
2019-02-16T08:02:28.430Z,68.00
2019-02-16T08:03:28.432Z,72.00
2019-02-16T08:04:28.408Z,76.00
2019-02-16T08:05:28.405Z,80.00
2019-02-16T08:06:28.385Z,88.00
2019-02-16T08:07:28.372Z,92.00
2019-02-16T08:08:28.362Z,100.00
2019-02-16T08:09:28.352Z,104.00
2019-02-16T08:10:28.351Z,108.00
2019-02-16T08:11:28.328Z,120.00
2019-02-16T08:12:28.320Z,136.00
2019-02-16T08:13:28.308Z,148.00
2019-02-16T08:14:28.296Z,160.00
2019-02-16T08:15:28.296Z,176.00
2019-02-16T08:16:28.290Z,188.00
2019-02-16T08:17:28.270Z,196.00
2019-02-16T08:18:28.252Z,192.00
2019-02-16T08:19:28.240Z,196.00
2019-02-16T08:20:28.253Z,196.00
2019-02-16T08:21:28.218Z,152.00
2019-02-16T08:22:28.270Z,200.00
2019-02-16T08:23:28.197Z,160.00
2019-02-16T08:24:28.188Z,180.00
2019-02-16T08:25:28.188Z,168.00
2019-02-16T08:26:28.183Z,128.00
2019-02-16T08:27:28.153Z,196.00
2019-02-16T08:28:28.141Z,184.00
2019-02-16T08:29:28.131Z,156.00
2019-02-16T08:30:28.132Z,196.00
2019-02-16T08:31:28.118Z,196.00
2019-02-16T08:32:28.098Z,192.00
2019-02-16T08:33:28.088Z,188.00
2019-02-16T08:34:28.078Z,184.00
2019-02-16T08:35:28.081Z,184.00
2019-02-16T08:36:28.055Z,180.00
2019-02-16T08:37:28.043Z,172.00
2019-02-16T08:38:28.047Z,168.00
2019-02-16T08:39:28.023Z,168.00
2019-02-16T08:40:28.033Z,164.00
2019-02-16T08:41:28.000Z,168.00
2019-02-16T08:42:27.989Z,172.00
2019-02-16T08:43:27.985Z,176.00
2019-02-16T08:44:27.966Z,176.00
2019-02-16T08:45:27.970Z,176.00
2019-02-16T08:46:27.945Z,180.00
2019-02-16T08:47:27.939Z,180.00
2019-02-16T08:48:27.923Z,184.00
2019-02-16T08:49:27.925Z,180.00
2019-02-16T08:50:29.519Z,180.00
2019-02-16T08:51:27.888Z,184.00
2019-02-16T08:52:27.879Z,180.00
2019-02-16T08:53:27.867Z,184.00
2019-02-16T08:54:27.856Z,180.00
2019-02-16T08:55:27.879Z,168.00
2019-02-16T08:56:27.842Z,164.00
2019-02-16T08:57:27.823Z,164.00
2019-02-16T08:58:27.812Z,160.00
2019-02-16T08:59:27.884Z,164.00
2019-02-16T09:00:27.790Z,164.00
2019-02-16T09:01:27.791Z,164.00
2019-02-16T09:02:27.774Z,164.00
2019-02-16T09:03:27.761Z,172.00
2019-02-16T09:04:27.752Z,172.00
2019-02-16T09:05:27.740Z,172.00
2019-02-16T09:06:27.737Z,168.00
2019-02-16T09:07:27.714Z,160.00
2019-02-16T09:08:27.704Z,160.00
2019-02-16T09:09:27.693Z,156.00
2019-02-16T09:10:27.684Z,160.00
2019-02-16T09:11:27.681Z,164.00
2019-02-16T09:12:27.670Z,164.00
2019-02-16T09:13:27.647Z,160.00
2019-02-16T09:14:27.640Z,156.00
2019-02-16T09:15:27.630Z,160.00
2019-02-16T09:16:27.626Z,160.00
2019-02-16T09:17:27.606Z,124.00
2019-02-16T09:18:27.593Z,164.00
2019-02-16T09:19:27.584Z,160.00
2019-02-16T09:20:27.628Z,152.00
2019-02-16T09:21:27.578Z,148.00
2019-02-16T09:22:27.550Z,152.00
2019-02-16T09:23:27.538Z,136.00
2019-02-16T09:24:27.527Z,164.00
2019-02-16T09:25:27.519Z,156.00
2019-02-16T09:26:27.521Z,160.00
2019-02-16T09:27:27.499Z,140.00
2019-02-16T09:28:27.506Z,140.00
2019-02-16T09:29:27.471Z,128.00
2019-02-16T09:30:27.461Z,128.00
2019-02-16T09:31:27.463Z,132.00
2019-02-16T09:32:27.439Z,132.00
2019-02-16T09:33:27.447Z,120.00
2019-02-16T09:34:27.416Z,116.00
2019-02-16T09:35:27.420Z,116.00
2019-02-16T09:36:27.413Z,120.00
2019-02-16T09:37:28.832Z,116.00
2019-02-16T09:38:27.374Z,116.00
2019-02-16T09:39:27.377Z,116.00
2019-02-16T09:40:27.351Z,120.00
2019-02-16T09:41:27.407Z,128.00
2019-02-16T09:42:27.330Z,132.00
2019-02-16T09:43:27.322Z,128.00
2019-02-16T09:44:27.311Z,128.00
2019-02-16T09:45:27.297Z,136.00
2019-02-16T09:46:27.298Z,152.00
2019-02-16T09:47:27.275Z,160.00
2019-02-16T09:48:27.265Z,160.00
2019-02-16T09:49:27.253Z,164.00
2019-02-16T09:50:28.225Z,164.00
2019-02-16T09:51:27.259Z,160.00
2019-02-16T09:52:27.220Z,156.00
2019-02-16T09:53:27.210Z,144.00
2019-02-16T09:54:27.212Z,136.00
2019-02-16T09:55:27.187Z,140.00
2019-02-16T09:56:27.193Z,144.00
2019-02-16T09:57:27.164Z,148.00
2019-02-16T09:58:27.170Z,156.00
2019-02-16T09:59:27.142Z,160.00
2019-02-16T10:00:27.133Z,164.00
2019-02-16T10:01:27.133Z,168.00
2019-02-16T10:02:27.109Z,164.00
2019-02-16T10:03:27.100Z,160.00
2019-02-16T10:04:27.087Z,172.00
2019-02-16T10:05:27.076Z,172.00
2019-02-16T10:06:27.104Z,172.00
2019-02-16T10:07:27.059Z,176.00
2019-02-16T10:08:27.063Z,188.00
2019-02-16T10:09:27.032Z,192.00
2019-02-16T10:10:27.022Z,200.00
2019-02-16T10:11:27.011Z,200.00
2019-02-16T10:12:27.011Z,212.00
2019-02-16T10:13:27.001Z,228.00
2019-02-16T10:14:26.981Z,236.00
2019-02-16T10:15:26.967Z,232.00
2019-02-16T10:16:26.955Z,228.00
2019-02-16T10:17:26.959Z,228.00
2019-02-16T10:18:26.935Z,228.00
2019-02-16T10:19:26.936Z,220.00
2019-02-16T10:20:26.926Z,228.00
2019-02-16T10:21:26.914Z,248.00
2019-02-16T10:22:26.902Z,264.00
2019-02-16T10:23:26.879Z,260.00
2019-02-16T10:24:26.870Z,240.00
2019-02-16T10:25:26.873Z,220.00
2019-02-16T10:26:26.845Z,220.00
2019-02-16T10:27:26.846Z,232.00
2019-02-16T10:28:26.826Z,244.00
2019-02-16T10:29:26.821Z,256.00
2019-02-16T10:30:26.810Z,280.00
2019-02-16T10:31:26.808Z,300.00
2019-02-16T10:32:26.792Z,328.00
2019-02-16T10:33:26.769Z,360.00
2019-02-16T10:34:26.757Z,1040.00
2019-02-16T10:35:26.746Z,3004.00
2019-02-16T10:36:26.747Z,5912.00
2019-02-16T10:37:26.747Z,4780.00
2019-02-16T10:38:26.712Z,2820.00
2019-02-16T10:39:26.705Z,3328.00
2019-02-16T10:40:26.692Z,4640.00
2019-02-16T10:41:26.683Z,5508.00
2019-02-16T10:42:26.685Z,4996.00
2019-02-16T10:43:26.658Z,5704.00
2019-02-16T10:44:26.659Z,6120.00
2019-02-16T10:45:26.637Z,3260.00
2019-02-16T10:46:26.652Z,1104.00
2019-02-16T10:47:26.962Z,628.00
2019-02-16T10:48:26.606Z,664.00
2019-02-16T10:49:26.591Z,632.00
2019-02-16T10:50:26.579Z,584.00
2019-02-16T10:51:26.571Z,544.00
2019-02-16T10:52:26.571Z,492.00
2019-02-16T10:53:26.547Z,448.00
2019-02-16T10:54:29.067Z,424.00
2019-02-16T10:55:26.530Z,420.00
2019-02-16T10:56:26.514Z,432.00
2019-02-16T10:57:26.516Z,444.00
2019-02-16T10:58:26.492Z,452.00
2019-02-16T10:59:26.487Z,480.00
2019-02-16T11:00:26.469Z,512.00
2019-02-16T11:01:26.463Z,524.00
2019-02-16T11:02:26.459Z,524.00
2019-02-16T11:03:26.439Z,536.00
2019-02-16T11:04:26.426Z,548.00
2019-02-16T11:05:26.416Z,532.00
2019-02-16T11:06:26.405Z,532.00
2019-02-16T11:07:26.425Z,532.00
2019-02-16T11:08:26.385Z,516.00
2019-02-16T11:09:26.404Z,512.00
2019-02-16T11:10:26.361Z,520.00
2019-02-16T11:11:26.349Z,512.00
2019-02-16T11:12:26.395Z,508.00
2019-02-16T11:13:26.327Z,500.00
2019-02-16T11:14:26.317Z,496.00
2019-02-16T11:15:26.308Z,496.00
2019-02-16T11:16:26.297Z,496.00
2019-02-16T11:17:26.303Z,488.00
2019-02-16T11:18:26.287Z,484.00
2019-02-16T11:19:26.261Z,480.00
2019-02-16T11:20:26.250Z,476.00
2019-02-16T11:21:26.238Z,472.00
2019-02-16T11:22:26.230Z,468.00
2019-02-16T11:23:26.229Z,472.00
2019-02-16T11:24:26.216Z,468.00
2019-02-16T11:25:26.197Z,460.00
2019-02-16T11:26:26.187Z,464.00
2019-02-16T11:27:26.173Z,464.00
2019-02-16T11:28:26.174Z,472.00
2019-02-16T11:29:26.165Z,476.00
2019-02-16T11:30:26.150Z,488.00
2019-02-16T11:31:26.127Z,492.00
2019-02-16T11:32:26.128Z,492.00
2019-02-16T11:33:26.117Z,496.00
2019-02-16T11:34:26.097Z,496.00
2019-02-16T11:35:26.084Z,492.00
2019-02-16T11:36:26.073Z,488.00
2019-02-16T11:37:26.063Z,488.00
2019-02-16T11:38:26.074Z,484.00
2019-02-16T11:39:26.039Z,432.00
2019-02-16T11:40:26.029Z,472.00
2019-02-16T11:41:26.063Z,480.00
2019-02-16T11:42:26.006Z,476.00
2019-02-16T11:43:33.022Z,480.00
2019-02-16T11:44:32.997Z,476.00
2019-02-16T11:45:25.979Z,472.00
2019-02-16T11:46:25.963Z,472.00
2019-02-16T11:47:25.952Z,476.00
2019-02-16T11:48:25.956Z,472.00
2019-02-16T11:49:25.930Z,472.00
2019-02-16T11:50:25.921Z,468.00
2019-02-16T11:51:25.910Z,464.00
2019-02-16T11:52:25.896Z,468.00
2019-02-16T11:53:25.918Z,476.00
2019-02-16T11:54:25.875Z,480.00
2019-02-16T11:55:25.862Z,476.00
2019-02-16T11:56:25.856Z,480.00
2019-02-16T11:57:25.842Z,480.00
2019-02-16T11:58:25.842Z,480.00
2019-02-16T11:59:25.823Z,476.00
2019-02-16T12:00:25.809Z,472.00
2019-02-16T12:01:25.796Z,468.00
2019-02-16T12:02:25.790Z,472.00
2019-02-16T12:03:25.801Z,476.00
2019-02-16T12:04:25.782Z,468.00
2019-02-16T12:05:25.753Z,476.00
2019-02-16T12:06:25.744Z,472.00
2019-02-16T12:07:25.732Z,472.00
2019-02-16T12:08:25.754Z,476.00
2019-02-16T12:09:25.716Z,480.00
2019-02-16T12:10:25.699Z,484.00
2019-02-16T12:11:25.689Z,480.00
2019-02-16T12:12:25.677Z,480.00
2019-02-16T12:13:25.667Z,488.00
2019-02-16T12:14:25.673Z,492.00
2019-02-16T12:15:25.646Z,488.00
2019-02-16T12:16:25.642Z,484.00
2019-02-16T12:17:25.621Z,488.00
2019-02-16T12:18:25.609Z,492.00
2019-02-16T12:19:25.613Z,476.00
2019-02-16T12:20:33.472Z,468.00
2019-02-16T12:21:26.579Z,464.00
2019-02-16T12:22:25.568Z,472.00
2019-02-16T12:23:25.556Z,488.00
2019-02-16T12:24:25.556Z,484.00
2019-02-16T12:25:25.538Z,480.00
2019-02-16T12:26:25.547Z,480.00
2019-02-16T12:27:25.511Z,484.00
2019-02-16T12:28:25.502Z,480.00
2019-02-16T12:29:25.509Z,484.00
2019-02-16T12:30:25.481Z,484.00
2019-02-16T12:31:25.468Z,476.00
2019-02-16T12:32:25.455Z,468.00
2019-02-16T12:33:25.444Z,468.00
2019-02-16T12:34:25.453Z,480.00
2019-02-16T12:35:25.425Z,484.00
2019-02-16T12:36:25.442Z,492.00
2019-02-16T12:37:25.400Z,488.00
2019-02-16T12:38:25.388Z,488.00
2019-02-16T12:39:25.412Z,492.00
2019-02-16T12:40:25.372Z,488.00
2019-02-16T12:41:25.358Z,488.00
2019-02-16T12:42:25.355Z,484.00
2019-02-16T12:43:25.333Z,480.00
2019-02-16T12:44:25.335Z,468.00
2019-02-16T12:45:25.312Z,468.00
2019-02-16T12:46:25.301Z,476.00
2019-02-16T12:47:25.292Z,472.00
2019-02-16T12:48:25.283Z,468.00
2019-02-16T12:49:25.328Z,468.00
2019-02-16T12:50:25.259Z,464.00
2019-02-16T12:51:25.250Z,460.00
2019-02-16T12:52:25.238Z,460.00
2019-02-16T12:53:25.225Z,456.00
2019-02-16T12:54:25.257Z,452.00
2019-02-16T12:55:25.203Z,444.00
2019-02-16T12:56:25.191Z,452.00